createdAt,value
2022-09-07T00:01:53.827Z,19.81
2022-09-07T00:05:15.441Z,19.93
2022-09-07T00:08:43.654Z,19.74
2022-09-07T00:12:10.333Z,19.87
2022-09-07T00:15:38.589Z,19.93
2022-09-07T00:19:03.856Z,19.90
2022-09-07T00:22:27.825Z,19.82
2022-09-07T00:25:53.963Z,19.76
2022-09-07T00:29:15.879Z,19.55
2022-09-07T00:32:42.136Z,19.65
2022-09-07T00:36:06.479Z,19.75
2022-09-07T00:39:28.116Z,19.65
2022-09-07T00:42:56.112Z,19.62
2022-09-07T00:46:31.896Z,19.74
2022-09-07T00:49:59.413Z,19.68
2022-09-07T00:53:30.729Z,19.55
2022-09-07T00:56:54.055Z,19.45
2022-09-07T01:00:15.878Z,19.57
2022-09-07T01:03:43.730Z,19.54
2022-09-07T01:07:05.891Z,19.51
2022-09-07T01:10:33.491Z,19.39
2022-09-07T01:13:58.131Z,19.38
2022-09-07T01:17:19.652Z,19.31
2022-09-07T01:21:15.716Z,19.41
2022-09-07T01:25:14.496Z,19.28
2022-09-07T01:28:38.923Z,19.23
2022-09-07T01:32:13.605Z,19.30
2022-09-07T01:35:47.968Z,19.24
2022-09-07T01:39:09.512Z,19.20
2022-09-07T01:42:41.040Z,19.21
2022-09-07T01:46:07.464Z,19.14
2022-09-07T01:49:39.579Z,19.17
2022-09-07T01:53:09.160Z,19.10
2022-09-07T01:56:38.940Z,19.04
2022-09-07T02:00:16.484Z,19.00
2022-09-07T02:03:47.302Z,19.09
2022-09-07T02:07:23.315Z,19.06
2022-09-07T02:11:03.664Z,18.95
2022-09-07T02:14:31.380Z,18.92
2022-09-07T02:18:05.563Z,18.88
2022-09-07T02:21:50.753Z,18.70
2022-09-07T02:25:37.839Z,18.86
2022-09-07T02:29:01.806Z,18.77
2022-09-07T02:32:23.419Z,18.77
2022-09-07T02:35:45.942Z,18.72
2022-09-07T02:39:07.678Z,18.58
2022-09-07T02:42:35.933Z,18.58
2022-09-07T02:46:09.948Z,18.42
2022-09-07T02:49:55.559Z,18.49
2022-09-07T02:53:42.882Z,18.52
2022-09-07T02:57:15.896Z,18.61
2022-09-07T03:00:47.873Z,18.63
2022-09-07T03:04:27.970Z,18.61
2022-09-07T03:08:16.778Z,18.62
2022-09-07T03:11:41.129Z,18.41
2022-09-07T03:15:02.879Z,18.28
2022-09-07T03:18:26.396Z,18.18
2022-09-07T03:21:50.548Z,18.25
2022-09-07T03:25:12.472Z,18.35
2022-09-07T03:28:34.110Z,18.22
2022-09-07T03:31:58.423Z,18.10
2022-09-07T03:35:20.459Z,18.03
2022-09-07T03:38:42.188Z,18.11
2022-09-07T03:42:06.273Z,18.18
2022-09-07T03:45:28.025Z,18.30
2022-09-07T03:48:50.467Z,18.31
2022-09-07T03:52:12.214Z,18.04
2022-09-07T03:55:35.947Z,18.04
2022-09-07T03:58:59.940Z,18.24
2022-09-07T04:02:21.720Z,18.24
2022-09-07T04:05:43.665Z,18.20
2022-09-07T04:09:08.954Z,18.22
2022-09-07T04:12:30.739Z,18.30
2022-09-07T04:15:53.992Z,18.24
2022-09-07T04:19:15.895Z,18.20
2022-09-07T04:22:37.420Z,18.24
2022-09-07T04:25:59.420Z,18.31
2022-09-07T04:29:21.143Z,18.37
2022-09-07T04:32:46.582Z,18.40
2022-09-07T04:36:12.138Z,18.35
2022-09-07T04:39:33.794Z,18.41
2022-09-07T04:42:55.466Z,18.44
2022-09-07T04:46:23.532Z,18.28
2022-09-07T04:49:49.874Z,18.30
2022-09-07T04:53:11.479Z,18.37
2022-09-07T04:56:35.463Z,18.48
2022-09-07T04:59:57.035Z,18.52
2022-09-07T05:03:18.608Z,18.56
2022-09-07T05:06:40.618Z,18.63
2022-09-07T05:10:02.176Z,18.70
2022-09-07T05:13:24.064Z,18.68
2022-09-07T05:16:45.758Z,18.79
2022-09-07T05:20:11.968Z,18.55
2022-09-07T05:23:36.167Z,18.24
2022-09-07T05:27:01.784Z,18.32
2022-09-07T05:37:50.844Z,19.17
2022-09-07T05:41:17.223Z,19.58
2022-09-07T05:44:46.040Z,19.99
2022-09-07T05:48:07.909Z,20.39
2022-09-07T05:51:29.532Z,20.40
2022-09-07T05:54:54.257Z,20.26
2022-09-07T05:58:17.017Z,20.60
2022-09-07T06:01:42.067Z,20.70
2022-09-07T06:05:03.694Z,21.05
2022-09-07T06:08:25.608Z,20.88
2022-09-07T06:11:51.996Z,21.15
2022-09-07T06:15:16.344Z,21.15
2022-09-07T06:18:45.148Z,20.94
2022-09-07T06:22:08.930Z,20.91
2022-09-07T06:25:30.546Z,21.02
2022-09-07T06:28:57.768Z,20.84
2022-09-07T06:36:04.198Z,21.15
2022-09-07T06:39:28.517Z,21.57
2022-09-07T06:42:52.799Z,22.00
2022-09-07T06:49:57.223Z,22.55
2022-09-07T06:53:38.571Z,22.74
2022-09-07T06:57:09.314Z,23.01
2022-09-07T07:00:31.571Z,22.94
2022-09-07T07:03:55.981Z,22.87
2022-09-07T07:07:17.578Z,23.17
2022-09-07T07:10:41.744Z,23.19
2022-09-07T07:14:03.744Z,22.81
2022-09-07T07:17:27.731Z,22.50
2022-09-07T07:20:49.776Z,22.83
2022-09-07T07:24:11.362Z,23.55
2022-09-07T07:27:32.952Z,24.00
2022-09-07T07:30:59.701Z,23.74
2022-09-07T07:34:21.358Z,23.70
2022-09-07T07:37:43.097Z,23.96
2022-09-07T07:48:34.471Z,23.52
2022-09-07T07:55:45.406Z,24.31
2022-09-07T07:59:12.613Z,24.34
2022-09-07T08:02:37.527Z,24.68
2022-09-07T08:06:11.247Z,25.02
2022-09-07T08:09:33.055Z,25.54
2022-09-07T08:12:55.056Z,25.85
2022-09-07T08:16:17.615Z,25.78
2022-09-07T08:19:41.942Z,25.43
2022-09-07T08:23:09.591Z,25.65
2022-09-07T08:26:31.221Z,25.70
2022-09-07T08:29:52.899Z,25.23
2022-09-07T08:33:14.449Z,25.23
2022-09-07T08:36:40.487Z,25.38
2022-09-07T08:40:05.678Z,24.97
2022-09-07T08:44:01.678Z,24.61
2022-09-07T08:47:41.317Z,25.24
2022-09-07T08:51:24.122Z,25.55
2022-09-07T08:54:57.543Z,25.61
2022-09-07T08:58:48.871Z,26.22
2022-09-07T09:02:36.600Z,26.80
2022-09-07T09:06:07.523Z,27.19
2022-09-07T09:09:32.878Z,26.76
2022-09-07T09:13:03.741Z,26.43
2022-09-07T09:16:42.997Z,26.08
2022-09-07T09:20:23.626Z,26.43
2022-09-07T09:23:51.507Z,26.63
2022-09-07T09:27:18.319Z,26.57
2022-09-07T09:30:40.085Z,26.64
2022-09-07T09:34:14.521Z,26.57
2022-09-07T09:37:38.116Z,26.95
2022-09-07T09:41:02.609Z,27.86
2022-09-07T09:44:33.115Z,28.01
2022-09-07T09:47:55.388Z,28.65
2022-09-07T09:55:17.208Z,28.97
2022-09-07T10:06:22.312Z,29.25
2022-09-07T10:09:50.747Z,28.76
2022-09-07T10:13:23.393Z,29.14
2022-09-07T10:16:45.971Z,28.66
2022-09-07T10:20:16.806Z,28.83
2022-09-07T10:23:40.595Z,28.37
2022-09-07T10:27:19.758Z,28.51
2022-09-07T10:31:03.393Z,29.11
2022-09-07T10:34:30.069Z,29.62
2022-09-07T10:38:16.521Z,29.76
2022-09-07T10:41:53.218Z,30.69
2022-09-07T10:45:35.085Z,31.23
2022-09-07T10:49:05.514Z,31.46
2022-09-07T10:52:45.062Z,30.28
2022-09-07T10:56:22.892Z,30.43
2022-09-07T11:03:40.980Z,29.11
2022-09-07T11:07:41.629Z,29.21
2022-09-07T11:11:05.940Z,28.89
2022-09-07T11:14:29.261Z,29.30
2022-09-07T11:18:07.406Z,29.80
2022-09-07T11:25:29.562Z,30.65
2022-09-07T11:33:01.790Z,30.27
2022-09-07T11:36:29.064Z,30.05
2022-09-07T11:40:05.088Z,30.07
2022-09-07T11:43:41.749Z,29.75
2022-09-07T11:47:22.656Z,29.41
2022-09-07T11:50:48.969Z,29.55
2022-09-07T11:54:34.194Z,28.94
2022-09-07T11:58:23.888Z,29.39
2022-09-07T12:01:48.417Z,29.66
2022-09-07T12:05:33.624Z,29.55
2022-09-07T12:09:25.456Z,29.24
2022-09-07T12:12:56.747Z,29.28
2022-09-07T12:16:51.267Z,29.47
2022-09-07T12:20:17.695Z,29.18
2022-09-07T12:23:48.607Z,29.31
2022-09-07T12:27:31.982Z,29.20
2022-09-07T12:31:12.798Z,29.03
2022-09-07T12:34:34.395Z,29.02
2022-09-07T12:37:57.686Z,29.13
2022-09-07T12:41:25.599Z,29.15
2022-09-07T12:44:47.516Z,29.08
2022-09-07T12:48:15.246Z,28.97
2022-09-07T12:56:15.537Z,29.10
2022-09-07T12:59:53.118Z,29.20
2022-09-07T13:07:35.900Z,29.18
2022-09-07T13:11:16.198Z,29.44
2022-09-07T13:14:44.068Z,29.55
2022-09-07T13:18:05.861Z,29.20
2022-09-07T13:21:43.538Z,28.84
2022-09-07T13:25:21.039Z,28.96
2022-09-07T13:28:52.086Z,28.97
2022-09-07T13:36:22.146Z,28.93
2022-09-07T13:39:52.544Z,28.94
2022-09-07T13:43:22.413Z,29.08
2022-09-07T13:47:11.609Z,29.21
2022-09-07T13:50:55.416Z,29.10
2022-09-07T13:54:49.540Z,29.13
2022-09-07T13:58:19.551Z,29.13
2022-09-07T14:01:47.178Z,29.14
2022-09-07T14:05:18.704Z,29.24
2022-09-07T14:08:40.932Z,29.41
2022-09-07T14:12:04.473Z,29.50
2022-09-07T14:15:37.196Z,28.94
2022-09-07T14:18:59.110Z,29.04
2022-09-07T14:22:23.586Z,29.03
2022-09-07T14:29:31.881Z,28.83
2022-09-07T14:33:05.181Z,28.87
2022-09-07T14:36:45.737Z,29.00
2022-09-07T14:40:15.643Z,28.77
2022-09-07T14:43:56.956Z,28.93
2022-09-07T14:47:30.439Z,28.89
2022-09-07T14:51:05.792Z,28.80
2022-09-07T14:54:34.949Z,28.79
2022-09-07T14:58:17.556Z,28.66
2022-09-07T15:01:39.234Z,28.73
2022-09-07T15:05:18.564Z,28.65
2022-09-07T15:08:46.658Z,28.49
2022-09-07T15:12:18.940Z,28.63
2022-09-07T15:15:46.738Z,28.69
2022-09-07T15:19:18.470Z,28.56
2022-09-07T15:22:40.009Z,28.56
2022-09-07T15:26:03.037Z,28.31
2022-09-07T15:29:25.015Z,28.11
2022-09-07T15:32:46.833Z,28.25
2022-09-07T15:36:12.051Z,28.24
2022-09-07T15:39:34.640Z,28.32
2022-09-07T15:43:00.331Z,28.10
2022-09-07T15:46:22.387Z,28.01
2022-09-07T15:49:51.486Z,27.94
2022-09-07T16:00:41.381Z,27.76
2022-09-07T16:04:05.437Z,27.69
2022-09-07T16:08:24.694Z,27.59
2022-09-07T16:11:18.437Z,27.54
2022-09-07T16:14:40.444Z,27.50
2022-09-07T16:18:02.597Z,27.47
2022-09-07T16:21:26.607Z,27.47
2022-09-07T16:24:48.668Z,27.42
2022-09-07T16:28:13.016Z,27.46
2022-09-07T16:31:36.205Z,27.33
2022-09-07T16:35:00.338Z,27.25
2022-09-07T16:42:03.766Z,27.24
2022-09-07T16:49:12.246Z,27.09
2022-09-07T16:52:34.607Z,27.08
2022-09-07T16:56:11.291Z,27.04
2022-09-07T16:59:32.962Z,26.90
2022-09-07T17:03:01.798Z,26.84
2022-09-07T17:06:28.234Z,26.80
2022-09-07T17:09:50.151Z,26.83
2022-09-07T17:13:12.008Z,26.70
2022-09-07T17:16:38.587Z,26.65
2022-09-07T17:20:02.807Z,26.60
2022-09-07T17:23:27.933Z,26.53
2022-09-07T17:26:49.547Z,26.47
2022-09-07T17:30:25.603Z,26.33
2022-09-07T17:33:49.823Z,26.13
2022-09-07T17:37:11.567Z,26.02
2022-09-07T17:40:33.401Z,25.96
2022-09-07T17:43:56.840Z,25.81
2022-09-07T17:47:21.161Z,25.61
2022-09-07T17:50:42.991Z,25.30
2022-09-07T17:54:09.979Z,25.09
2022-09-07T17:57:34.816Z,24.88
2022-09-07T18:01:02.905Z,24.78
2022-09-07T18:04:28.873Z,24.83
2022-09-07T18:07:50.622Z,24.96
2022-09-07T18:14:57.385Z,24.93
2022-09-07T18:18:20.219Z,24.85
2022-09-07T18:21:47.778Z,24.85
2022-09-07T18:25:10.436Z,24.68
2022-09-07T18:32:13.718Z,24.54
2022-09-07T18:35:35.357Z,24.59
2022-09-07T18:39:01.384Z,24.65
2022-09-07T18:42:26.075Z,24.51
2022-09-07T18:45:51.018Z,24.49
2022-09-07T18:49:12.752Z,24.48
2022-09-07T18:56:22.390Z,24.00
2022-09-07T18:59:44.089Z,24.03
2022-09-07T19:03:05.645Z,24.13
2022-09-07T19:06:27.242Z,24.16
2022-09-07T19:09:49.010Z,24.20
2022-09-07T19:13:10.728Z,24.13
2022-09-07T19:16:35.622Z,24.10
2022-09-07T19:20:00.691Z,23.80
2022-09-07T19:23:25.113Z,23.53
2022-09-07T19:26:48.464Z,23.31
2022-09-07T19:30:12.758Z,23.39
2022-09-07T19:33:35.243Z,23.45
2022-09-07T19:36:59.384Z,23.51
2022-09-07T19:40:26.922Z,23.58
2022-09-07T19:43:51.851Z,23.31
2022-09-07T19:47:13.404Z,23.21
2022-09-07T19:50:40.835Z,23.29
2022-09-07T19:54:06.423Z,23.22
2022-09-07T19:57:28.551Z,23.18
2022-09-07T20:00:52.553Z,23.35
2022-09-07T20:04:20.725Z,23.42
2022-09-07T20:07:48.400Z,23.38
2022-09-07T20:11:16.725Z,23.19
2022-09-07T20:14:38.317Z,23.04
2022-09-07T20:18:02.495Z,23.03
2022-09-07T20:21:24.741Z,23.08
2022-09-07T20:24:46.570Z,22.80
2022-09-07T20:28:08.178Z,22.66
2022-09-07T20:31:32.269Z,22.57
2022-09-07T20:34:56.783Z,22.70
2022-09-07T20:38:21.469Z,22.81
2022-09-07T20:41:43.185Z,22.90
2022-09-07T20:45:09.038Z,23.04
2022-09-07T20:48:31.188Z,23.00
2022-09-07T20:51:55.743Z,22.97
2022-09-07T20:55:24.580Z,23.01
2022-09-07T20:58:47.321Z,23.10
2022-09-07T21:02:09.944Z,23.15
2022-09-07T21:05:35.613Z,23.14
2022-09-07T21:08:59.869Z,23.04
2022-09-07T21:12:23.739Z,22.91
2022-09-07T21:15:45.511Z,22.84
2022-09-07T21:19:09.325Z,22.76
2022-09-07T21:22:31.715Z,22.55
2022-09-07T21:25:55.724Z,22.52
2022-09-07T21:29:23.371Z,22.53
2022-09-07T21:32:45.103Z,22.32
2022-09-07T21:36:09.426Z,22.11
2022-09-07T21:39:33.353Z,21.83
2022-09-07T21:42:55.063Z,22.09
2022-09-07T21:46:18.827Z,22.29
2022-09-07T21:49:44.493Z,22.25
2022-09-07T21:53:06.207Z,22.29
2022-09-07T21:56:31.964Z,22.39
2022-09-07T21:59:56.576Z,22.42
2022-09-07T22:03:18.247Z,22.25
2022-09-07T22:06:43.893Z,22.22
2022-09-07T22:10:08.807Z,22.35
2022-09-07T22:13:30.451Z,22.11
2022-09-07T22:16:52.193Z,21.75
2022-09-07T22:20:13.948Z,21.71
2022-09-07T22:23:39.789Z,21.80
2022-09-07T22:27:01.512Z,21.83
2022-09-07T22:30:23.307Z,21.85
2022-09-07T22:33:46.827Z,21.88
2022-09-07T22:37:11.395Z,21.90
2022-09-07T22:40:33.057Z,21.87
2022-09-07T22:43:56.131Z,21.97
2022-09-07T22:47:17.668Z,21.80
2022-09-07T22:50:39.171Z,21.75
2022-09-07T22:54:00.829Z,21.67
2022-09-07T22:57:23.397Z,21.64
2022-09-07T23:00:46.935Z,21.70
2022-09-07T23:04:11.228Z,21.43
2022-09-07T23:07:32.876Z,21.42
2022-09-07T23:11:01.476Z,21.29
2022-09-07T23:14:23.127Z,21.29
2022-09-07T23:17:44.826Z,21.20
2022-09-07T23:21:08.893Z,21.10
2022-09-07T23:24:31.396Z,21.10
2022-09-07T23:27:54.108Z,21.15
2022-09-07T23:31:18.436Z,21.03
2022-09-07T23:34:40.037Z,21.08
2022-09-07T23:38:01.545Z,20.81
2022-09-07T23:41:24.982Z,20.81
2022-09-07T23:44:48.460Z,20.75
2022-09-07T23:48:10.005Z,20.74
2022-09-07T23:51:33.869Z,20.45
2022-09-07T23:54:58.058Z,20.65
2022-09-07T23:58:22.807Z,20.05
